Time;durP1;ratioP1;P1;durP2;ratioP2;P2;SDS_P1;SDS_P2;PMS_P1;PMS_P2;Temp;Humidity;BMP_temperature;BMP_pressure;BME280_temperature;BME280_humidity;BME280_pressure;Samples;Min_cycle;Max_cycle;Signal;HPM_P1;HPM_P2
2024/03/07 00:02:17;;;;;;;16.20;13.43;;;;;;;6.84;78.06;96603.59;4979465;28;20527;-70
2024/03/07 00:04:42;;;;;;;15.27;12.50;;;;;;;6.84;77.17;96611.44;4996069;28;20197;-71
2024/03/07 00:07:08;;;;;;;19.73;13.43;;;;;;;6.87;76.84;96610.50;4991749;28;21308;-71
2024/03/07 00:09:34;;;;;;;18.10;13.10;;;;;;;6.86;77.40;96614.88;4990794;28;20243;-71
2024/03/07 00:12:01;;;;;;;18.67;14.80;;;;;;;6.95;76.03;96609.41;4990293;28;20180;-70
2024/03/07 00:14:27;;;;;;;17.40;14.13;;;;;;;6.72;77.27;96612.59;4990146;28;21097;-70
2024/03/07 00:17:01;;;;;;;18.43;13.83;;;;;;;6.73;76.88;96609.13;4990549;28;20416;-69
2024/03/07 00:19:27;;;;;;;21.27;15.57;;;;;;;6.68;76.58;96604.88;4989921;28;20608;-69
2024/03/07 00:21:53;;;;;;;20.93;17.30;;;;;;;6.78;76.65;96606.41;4989875;28;20408;-71
2024/03/07 00:24:22;;;;;;;22.70;15.67;;;;;;;6.71;75.85;96612.66;4993472;28;20248;-70
2024/03/07 00:26:51;;;;;;;21.30;16.83;;;;;;;6.59;76.74;96611.22;4989697;28;20466;-70
2024/03/07 00:29:19;;;;;;;21.67;16.60;;;;;;;6.71;76.06;96603.06;4989669;28;20482;-70
2024/03/07 00:31:46;;;;;;;24.53;17.07;;;;;;;6.63;76.15;96614.59;4989039;28;20440;-71
2024/03/07 00:34:14;;;;;;;24.83;17.00;;;;;;;6.66;76.18;96606.69;4988757;28;20906;-71
2024/03/07 00:36:40;;;;;;;31.60;19.20;;;;;;;6.63;75.69;96607.63;4988607;28;20613;-70
2024/03/07 00:39:08;;;;;;;31.77;18.03;;;;;;;6.62;75.47;96605.06;4989160;28;20502;-71
2024/03/07 00:41:33;;;;;;;24.83;19.43;;;;;;;6.66;75.17;96604.06;4989139;28;20419;-71
2024/03/07 00:43:59;;;;;;;25.60;19.80;;;;;;;6.57;75.35;96600.81;4989314;28;20457;-71
2024/03/07 00:46:24;;;;;;;28.40;19.50;;;;;;;6.52;74.98;96600.06;4988878;28;20179;-71
2024/03/07 00:48:50;;;;;;;24.30;18.30;;;;;;;6.23;75.81;96605.97;4988478;28;20200;-71
2024/03/07 00:51:15;;;;;;;26.90;19.97;;;;;;;6.52;74.89;96600.06;4988280;28;20173;-70
2024/03/07 00:53:41;;;;;;;25.67;19.17;;;;;;;6.58;74.74;96597.28;4988175;28;20223;-70
2024/03/07 00:56:06;;;;;;;28.87;19.33;;;;;;;6.22;75.98;96596.44;4988152;28;20189;-71
2024/03/07 00:58:32;;;;;;;28.20;19.07;;;;;;;6.31;75.56;96592.78;4988290;28;20184;-71
2024/03/07 01:00:57;;;;;;;26.83;20.53;;;;;;;6.30;75.74;96593.66;4987791;28;20176;-71
2024/03/07 01:03:24;;;;;;;27.63;20.20;;;;;;;6.45;74.45;96589.81;4988038;28;20197;-71
2024/03/07 01:05:49;;;;;;;28.00;18.90;;;;;;;6.31;74.65;96590.19;4988293;28;20180;-71
2024/03/07 01:08:15;;;;;;;25.53;18.57;;;;;;;6.45;74.72;96593.31;4988584;28;20423;-70
2024/03/07 01:10:40;;;;;;;29.40;20.93;;;;;;;6.59;74.18;96587.75;4988974;28;20169;-71
2024/03/07 01:13:07;;;;;;;28.83;20.13;;;;;;;6.55;73.73;96588.72;4988001;28;20216;-71
2024/03/07 01:15:34;;;;;;;27.03;20.03;;;;;;;6.67;73.07;96590.16;4987955;28;20541;-71
2024/03/07 01:17:59;;;;;;;27.60;19.93;;;;;;;6.42;73.84;96600.31;4986651;28;20504;-71
2024/03/07 01:20:25;;;;;;;29.00;21.00;;;;;;;6.49;73.88;96589.69;4987995;28;20412;-71
2024/03/07 01:22:51;;;;;;;37.77;22.30;;;;;;;6.44;73.27;96593.31;4987311;28;20177;-71
2024/03/07 01:25:17;;;;;;;28.90;20.50;;;;;;;6.35;73.48;96586.56;4987715;28;20296;-71
2024/03/07 01:27:42;;;;;;;28.20;20.67;;;;;;;6.32;73.32;96584.91;4988132;28;20514;-71
2024/03/07 01:30:09;;;;;;;32.70;21.77;;;;;;;6.17;73.75;96576.63;4987611;28;20412;-71
2024/03/07 01:32:34;;;;;;;28.30;20.50;;;;;;;6.21;74.11;96583.44;4987320;28;20537;-71
2024/03/07 01:35:00;;;;;;;33.77;22.47;;;;;;;6.17;74.78;96581.81;4969919;28;20450;-71
2024/03/07 01:37:26;;;;;;;28.87;20.10;;;;;;;6.25;73.89;96578.13;4987632;28;20593;-71
2024/03/07 01:39:52;;;;;;;30.50;20.10;;;;;;;5.97;74.67;96570.09;4987442;28;20423;-70
2024/03/07 01:42:17;;;;;;;28.27;20.20;;;;;;;5.68;75.47;96565.53;4987318;28;20268;-71
2024/03/07 01:44:43;;;;;;;31.90;23.03;;;;;;;6.05;74.63;96570.78;4987300;28;20599;-71
2024/03/07 01:47:09;;;;;;;27.20;20.47;;;;;;;6.20;74.50;96560.91;4987624;28;20191;-70
2024/03/07 01:49:35;;;;;;;30.77;21.67;;;;;;;6.42;74.24;96572.50;4987399;28;20423;-71
2024/03/07 01:52:02;;;;;;;30.80;22.77;;;;;;;6.54;73.65;96566.13;4987155;28;20235;-71
2024/03/07 01:54:28;;;;;;;26.60;21.40;;;;;;;6.44;74.00;96564.66;4987303;28;20208;-70
2024/03/07 01:56:55;;;;;;;27.70;19.90;;;;;;;6.46;73.84;96565.47;4987432;28;20515;-71
2024/03/07 01:59:21;;;;;;;28.73;20.70;;;;;;;6.01;74.24;96561.34;4987449;28;20200;-72
2024/03/07 02:01:47;;;;;;;32.33;21.60;;;;;;;5.77;75.77;96564.47;4987183;28;20456;-72
2024/03/07 02:04:14;;;;;;;36.30;20.23;;;;;;;5.81;76.08;96553.97;4987099;28;20835;-71
2024/03/07 02:06:39;;;;;;;29.03;20.03;;;;;;;5.86;75.57;96546.88;4988509;28;20181;-70
2024/03/07 02:09:05;;;;;;;29.67;21.30;;;;;;;6.07;75.03;96552.50;4988070;28;20406;-69
2024/03/07 02:11:31;;;;;;;29.57;21.43;;;;;;;6.06;75.27;96556.00;4986996;28;20177;-70
2024/03/07 02:13:57;;;;;;;27.63;22.10;;;;;;;5.97;75.99;96556.22;4986727;28;20236;-71
2024/03/07 02:16:22;;;;;;;27.20;20.77;;;;;;;6.00;75.82;96559.63;4986739;28;20412;-71
2024/03/07 02:18:49;;;;;;;32.63;23.23;;;;;;;6.04;75.24;96548.22;4986815;28;20177;-70
2024/03/07 02:21:15;;;;;;;25.53;19.33;;;;;;;5.69;76.45;96552.47;4985941;28;20184;-71
2024/03/07 02:23:41;;;;;;;28.73;23.20;;;;;;;5.66;76.85;96547.31;4986369;28;20434;-72
2024/03/07 02:26:08;;;;;;;35.90;22.67;;;;;;;5.87;76.06;96543.38;4986840;28;20565;-71
2024/03/07 02:28:33;;;;;;;30.67;20.90;;;;;;;6.06;76.04;96543.84;4986637;28;20580;-71
2024/03/07 02:31:00;;;;;;;30.30;21.23;;;;;;;6.15;74.87;96545.38;4986393;28;20455;-71
2024/03/07 02:33:25;;;;;;;29.30;20.50;;;;;;;5.76;76.84;96532.34;4986251;28;20463;-71
2024/03/07 02:35:51;;;;;;;27.00;20.70;;;;;;;5.61;77.17;96536.16;4986397;28;20286;-71
2024/03/07 02:38:17;;;;;;;28.27;21.40;;;;;;;5.77;76.92;96528.88;4986195;28;20192;-72
2024/03/07 02:40:43;;;;;;;32.53;22.43;;;;;;;5.83;76.58;96533.91;4986234;28;20180;-70
2024/03/07 02:43:08;;;;;;;30.30;22.80;;;;;;;5.89;76.55;96527.72;4985911;28;20495;-71
2024/03/07 02:45:34;;;;;;;38.27;23.20;;;;;;;5.96;75.63;96529.31;4986773;28;20181;-71
2024/03/07 02:47:59;;;;;;;31.70;23.53;;;;;;;5.86;75.34;96533.03;4986803;28;20177;-71
2024/03/07 02:50:25;;;;;;;34.30;23.30;;;;;;;5.97;74.82;96532.78;4986834;28;20203;-71
2024/03/07 02:52:52;;;;;;;35.50;23.83;;;;;;;5.98;74.74;96535.38;4986009;28;20870;-71
2024/03/07 02:55:18;;;;;;;32.97;24.00;;;;;;;6.02;74.01;96529.16;4986223;28;20201;-71
2024/03/07 02:57:45;;;;;;;31.97;20.80;;;;;;;5.99;74.48;96520.59;4986412;28;20422;-72
2024/03/07 03:00:20;;;;;;;33.43;23.90;;;;;;;6.03;73.83;96517.03;4986394;28;20412;-69
2024/03/07 03:02:47;;;;;;;36.47;24.63;;;;;;;5.92;74.08;96517.22;4986418;28;20408;-70
2024/03/07 03:05:14;;;;;;;33.77;23.90;;;;;;;5.82;74.49;96526.16;4987628;28;20440;-70
2024/03/07 03:07:40;;;;;;;34.47;23.60;;;;;;;5.92;74.08;96528.50;4988577;28;20416;-71
2024/03/07 03:10:09;;;;;;;32.63;23.60;;;;;;;5.81;74.39;96524.44;4989067;28;20463;-72
2024/03/07 03:12:37;;;;;;;36.47;25.07;;;;;;;5.77;72.67;96523.66;4989318;28;20527;-71
2024/03/07 03:15:05;;;;;;;34.27;24.87;;;;;;;5.59;73.26;96519.72;4990780;28;20491;-71
2024/03/07 03:17:30;;;;;;;35.83;26.57;;;;;;;5.64;72.78;96520.47;4991372;28;20415;-71
2024/03/07 03:19:56;;;;;;;35.77;26.20;;;;;;;5.65;71.93;96522.19;4990160;28;20500;-71
2024/03/07 03:22:22;;;;;;;36.63;25.60;;;;;;;5.66;71.98;96520.44;4989526;28;20185;-72
2024/03/07 03:24:47;;;;;;;35.90;25.90;;;;;;;5.50;71.57;96519.91;4990223;28;20676;-71
2024/03/07 03:27:13;;;;;;;35.97;26.30;;;;;;;5.65;71.60;96519.59;4988799;28;20243;-71
2024/03/07 03:29:40;;;;;;;37.77;27.17;;;;;;;5.65;72.04;96516.97;4987339;28;20240;-71
2024/03/07 03:32:06;;;;;;;35.67;26.37;;;;;;;5.42;73.00;96520.09;4986707;28;20479;-70
2024/03/07 03:34:33;;;;;;;36.50;24.80;;;;;;;5.46;72.19;96520.91;4988987;28;20467;-71
2024/03/07 03:36:59;;;;;;;41.30;27.47;;;;;;;5.47;72.72;96522.59;4990695;28;20516;-71
2024/03/07 03:39:26;;;;;;;35.17;25.83;;;;;;;5.41;72.75;96521.00;4990399;28;20507;-71
2024/03/07 03:41:52;;;;;;;33.30;23.40;;;;;;;5.47;72.73;96520.84;4990406;28;20259;-71
2024/03/07 03:44:18;;;;;;;34.60;24.80;;;;;;;5.50;72.31;96519.91;4990230;28;20523;-71
2024/03/07 03:46:44;;;;;;;35.53;23.43;;;;;;;5.41;72.42;96515.78;4990552;28;20176;-71
2024/03/07 03:49:10;;;;;;;41.73;25.87;;;;;;;5.54;72.28;96518.13;4990253;28;20180;-69
2024/03/07 03:51:36;;;;;;;37.73;26.57;;;;;;;5.34;71.94;96518.53;4990638;28;20404;-71
2024/03/07 03:54:01;;;;;;;39.20;26.30;;;;;;;5.50;71.37;96519.91;4990219;28;20267;-71
2024/03/07 03:56:27;;;;;;;39.33;26.87;;;;;;;5.43;71.53;96513.13;4990389;28;20412;-71
2024/03/07 03:58:52;;;;;;;36.80;26.40;;;;;;;5.38;71.11;96520.19;4972363;28;20644;-71
2024/03/07 04:01:17;;;;;;;38.80;28.17;;;;;;;5.43;70.99;96510.53;4972417;28;20755;-71
2024/03/07 04:03:46;;;;;;;34.63;24.90;;;;;;;5.25;71.17;96517.00;4989310;28;20841;-71
2024/03/07 04:06:12;;;;;;;38.40;26.93;;;;;;;5.35;71.02;96515.91;4989182;28;20989;-71
2024/03/07 04:08:37;;;;;;;37.70;26.23;;;;;;;5.21;71.28;96521.41;4988830;28;20408;-71
2024/03/07 04:11:04;;;;;;;31.60;24.23;;;;;;;5.33;70.12;96511.63;4971192;28;20839;-71
2024/03/07 04:13:30;;;;;;;40.50;28.00;;;;;;;5.31;70.39;96511.66;4989012;28;20583;-71
2024/03/07 04:15:55;;;;;;;37.50;25.27;;;;;;;5.30;70.05;96513.41;4989133;28;20409;-70
2024/03/07 04:18:21;;;;;;;33.77;26.20;;;;;;;5.41;70.00;96505.38;4988888;28;20435;-71
2024/03/07 04:20:46;;;;;;;36.40;27.37;;;;;;;5.29;70.51;96503.00;4988683;28;20226;-70
2024/03/07 04:23:12;;;;;;;35.60;27.97;;;;;;;5.25;69.38;96507.44;4988642;28;20165;-71
2024/03/07 04:25:37;;;;;;;38.47;26.37;;;;;;;5.36;69.83;96501.16;4988903;28;20172;-71
2024/03/07 04:28:03;;;;;;;35.20;25.83;;;;;;;5.46;69.33;96494.88;4971045;28;20185;-70
2024/03/07 04:30:28;;;;;;;39.00;26.87;;;;;;;5.29;69.52;96497.81;4988822;28;20173;-71
2024/03/07 04:32:54;;;;;;;36.67;25.50;;;;;;;4.80;70.98;96507.50;4988382;28;20211;-71
2024/03/07 04:35:19;;;;;;;41.27;26.53;;;;;;;5.06;70.66;96504.38;4988415;28;21405;-71
2024/03/07 04:37:45;;;;;;;38.03;26.50;;;;;;;5.07;70.47;96511.28;4988847;28;20169;-71
2024/03/07 04:40:17;;;;;;;39.90;26.63;;;;;;;5.29;69.82;96510.81;4989117;28;20195;-71
2024/03/07 04:42:43;;;;;;;40.80;24.90;;;;;;;5.21;69.52;96502.34;4988500;28;20196;-71
2024/03/07 04:45:10;;;;;;;38.43;25.63;;;;;;;4.68;70.20;96505.13;4989293;28;20444;-71
2024/03/07 04:47:36;;;;;;;34.70;24.00;;;;;;;4.97;70.04;96501.09;4990927;28;20974;-71
2024/03/07 04:50:02;;;;;;;41.13;26.30;;;;;;;4.84;70.36;96505.66;4990067;28;20416;-70
2024/03/07 04:52:28;;;;;;;34.00;24.40;;;;;;;4.80;70.26;96506.66;4989971;28;20423;-72
2024/03/07 04:54:53;;;;;;;38.77;25.47;;;;;;;4.91;69.95;96499.47;4989427;28;20197;-71
2024/03/07 04:57:19;;;;;;;40.00;24.93;;;;;;;4.82;70.55;96508.31;4988463;28;20168;-71
2024/03/07 04:59:44;;;;;;;35.80;23.97;;;;;;;5.06;69.49;96504.38;4988479;28;20177;-71
2024/03/07 05:02:10;;;;;;;35.43;27.10;;;;;;;5.03;69.07;96503.56;4987768;28;20251;-72
2024/03/07 05:04:35;;;;;;;38.70;25.37;;;;;;;4.97;69.08;96508.91;4987730;28;20196;-71
2024/03/07 05:07:01;;;;;;;32.43;23.47;;;;;;;4.36;71.36;96508.31;4987891;28;20728;-71
2024/03/07 05:09:28;;;;;;;36.80;25.27;;;;;;;4.82;70.18;96516.13;4987739;28;20181;-71
2024/03/07 05:11:54;;;;;;;37.90;25.70;;;;;;;4.92;69.26;96511.59;4987853;28;20416;-71
2024/03/07 05:14:21;;;;;;;35.70;25.40;;;;;;;5.15;68.27;96518.94;4987490;28;20468;-71
2024/03/07 05:17:04;;;;;;;36.73;26.43;;;;;;;4.79;68.50;96510.09;4987628;28;20177;-71
2024/03/07 05:19:31;;;;;;;33.23;24.73;;;;;;;4.04;71.87;96517.53;4987847;28;20454;-71
2024/03/07 05:21:56;;;;;;;37.27;24.47;;;;;;;4.35;69.61;96511.81;4980128;28;20417;-72
2024/03/07 05:24:22;;;;;;;36.07;25.00;;;;;;;4.37;70.33;96523.00;4985553;28;20538;-72
2024/03/07 05:26:47;;;;;;;37.10;25.93;;;;;;;4.73;69.44;96516.28;4986656;28;20176;-71
2024/03/07 05:29:13;;;;;;;31.80;23.13;;;;;;;4.55;70.36;96514.88;4987517;28;20172;-71
2024/03/07 05:31:46;;;;;;;37.60;24.47;;;;;;;4.60;69.70;96512.19;4986368;28;20229;-71
2024/03/07 05:34:12;;;;;;;39.77;25.70;;;;;;;4.10;71.13;96514.81;4986317;28;20208;-71
2024/03/07 05:36:44;;;;;;;35.87;25.10;;;;;;;4.08;71.70;96513.13;4985856;28;20435;-71
2024/03/07 05:39:11;;;;;;;37.67;25.07;;;;;;;4.40;70.20;96516.03;4986222;28;21120;-71
2024/03/07 05:41:37;;;;;;;36.47;26.80;;;;;;;4.37;70.72;96515.22;4986078;28;20415;-71
2024/03/07 05:44:02;;;;;;;41.60;26.90;;;;;;;4.62;69.80;96516.47;4985978;28;20487;-71
2024/03/07 05:46:28;;;;;;;36.50;26.77;;;;;;;4.30;69.81;96517.09;4985242;28;21178;-70
2024/03/07 05:48:56;;;;;;;33.80;25.10;;;;;;;4.46;70.39;96517.66;4986009;28;20191;-70
2024/03/07 05:51:23;;;;;;;41.93;27.17;;;;;;;4.33;71.07;96519.63;4985511;28;20805;-71
2024/03/07 05:53:48;;;;;;;38.30;26.63;;;;;;;4.34;70.94;96523.91;4983923;28;20474;-71
2024/03/07 05:56:14;;;;;;;37.20;25.77;;;;;;;4.28;71.29;96521.44;4981561;28;20440;-70
2024/03/07 05:58:39;;;;;;;37.60;25.77;;;;;;;4.03;72.32;96519.25;4999210;28;20226;-71
2024/03/07 06:01:05;;;;;;;36.77;26.00;;;;;;;4.22;71.75;96521.53;4999954;28;20183;-71
2024/03/07 06:03:30;;;;;;;42.20;25.40;;;;;;;4.70;70.21;96515.47;5001580;28;20207;-71
2024/03/07 06:05:56;;;;;;;37.23;25.33;;;;;;;4.73;69.80;96518.03;4990764;28;20184;-72
2024/03/07 06:08:21;;;;;;;37.20;26.13;;;;;;;4.66;69.46;96525.94;4995167;28;20204;-72
2024/03/07 06:10:47;;;;;;;35.57;25.20;;;;;;;4.64;69.34;96517.31;4995738;28;20255;-70
2024/03/07 06:13:15;;;;;;;37.77;24.73;;;;;;;4.50;70.92;96521.06;5004787;28;20295;-72
2024/03/07 06:15:44;;;;;;;36.93;25.53;;;;;;;4.68;69.18;96515.53;5000321;28;21027;-72
2024/03/07 06:18:14;;;;;;;36.90;24.87;;;;;;;4.60;69.31;96520.84;5006042;28;20427;-73
2024/03/07 06:20:40;;;;;;;50.83;24.70;;;;;;;4.58;70.05;96521.75;4988129;28;20427;-71
2024/03/07 06:23:07;;;;;;;41.10;25.97;;;;;;;4.01;71.92;96522.75;5004758;28;20451;-71
2024/03/07 06:25:36;;;;;;;39.33;25.27;;;;;;;4.31;71.71;96528.31;4996329;28;20427;-72
2024/03/07 06:28:09;;;;;;;36.77;25.57;;;;;;;4.64;70.55;96519.06;4971085;28;20998;-71
2024/03/07 06:30:36;;;;;;;39.30;25.30;;;;;;;4.24;71.32;96518.03;4986977;28;20451;-72
2024/03/07 06:33:02;;;;;;;37.50;27.00;;;;;;;4.39;71.36;96529.91;4990104;28;21039;-71
2024/03/07 06:35:27;;;;;;;35.87;25.77;;;;;;;4.32;70.73;96525.69;4992468;28;20460;-71
2024/03/07 06:37:53;;;;;;;34.20;22.70;;;;;;;3.99;72.00;96521.91;4993992;28;20177;-72
2024/03/07 06:40:22;;;;;;;42.13;26.27;;;;;;;4.18;71.95;96519.88;4992015;28;20199;-70
2024/03/07 06:42:48;;;;;;;41.57;27.97;;;;;;;4.23;71.41;96521.53;4994747;28;20319;-71
2024/03/07 06:45:13;;;;;;;43.00;26.40;;;;;;;4.23;71.74;96524.13;4991178;28;20436;-71
2024/03/07 06:47:39;;;;;;;35.83;25.23;;;;;;;3.97;71.37;96521.94;4991451;28;20482;-72
2024/03/07 06:50:08;;;;;;;35.27;24.93;;;;;;;3.79;73.69;96527.44;4990616;28;20223;-72
2024/03/07 06:52:34;;;;;;;38.40;26.77;;;;;;;4.09;72.03;96527.84;4986386;28;20177;-71
2024/03/07 06:54:59;;;;;;;39.10;26.40;;;;;;;4.15;71.75;96525.97;4985386;28;20992;-70
2024/03/07 06:57:24;;;;;;;35.80;25.20;;;;;;;4.43;70.57;96525.50;4985632;28;20215;-69
2024/03/07 06:59:50;;;;;;;38.83;26.47;;;;;;;4.43;70.81;96538.50;4967892;28;20180;-73
2024/03/07 07:02:15;;;;;;;39.57;24.07;;;;;;;4.41;71.08;96530.72;4985131;28;20189;-69
2024/03/07 07:04:45;;;;;;;35.10;25.27;;;;;;;4.04;72.05;96533.09;4962162;28;20205;-70
2024/03/07 07:07:12;;;;;;;38.20;25.10;;;;;;;4.23;71.55;96531.91;4985122;28;20188;-71
2024/03/07 07:09:38;;;;;;;36.57;26.10;;;;;;;4.06;72.35;96528.72;4990000;28;20495;-70
2024/03/07 07:12:04;;;;;;;36.30;24.27;;;;;;;3.89;72.25;96530.72;4984601;28;20994;-69
2024/03/07 07:14:29;;;;;;;39.40;25.47;;;;;;;3.94;72.54;96527.16;4989037;28;20303;-68
2024/03/07 07:16:56;;;;;;;40.67;25.87;;;;;;;3.75;73.27;96528.34;4989172;28;20181;-69
2024/03/07 07:19:22;;;;;;;33.43;24.03;;;;;;;3.66;74.12;96528.47;4991393;28;20555;-67
2024/03/07 07:21:49;;;;;;;38.07;24.40;;;;;;;3.47;73.11;96530.47;4990279;28;20435;-69
2024/03/07 07:24:15;;;;;;;38.37;24.10;;;;;;;3.56;74.33;96532.94;4986275;28;20456;-69
2024/03/07 07:26:40;;;;;;;37.00;26.13;;;;;;;3.69;73.22;96525.84;4990946;28;20427;-72
2024/03/07 07:29:06;;;;;;;35.43;25.87;;;;;;;3.71;73.32;96524.06;4993266;28;20185;-69
2024/03/07 07:31:32;;;;;;;42.13;27.13;;;;;;;3.80;73.20;96521.34;4990954;28;20180;-69
2024/03/07 07:33:58;;;;;;;43.17;26.93;;;;;;;3.64;73.91;96525.94;4988896;28;20221;-69
2024/03/07 07:36:23;;;;;;;42.67;26.67;;;;;;;3.57;74.65;96525.16;4986888;28;20510;-69
2024/03/07 07:38:49;;;;;;;43.10;25.77;;;;;;;3.69;73.84;96525.84;4984327;28;20188;-69
2024/03/07 07:41:14;;;;;;;44.30;27.30;;;;;;;3.66;73.59;96531.97;4989712;28;20285;-67
2024/03/07 07:43:41;;;;;;;44.10;26.83;;;;;;;3.15;75.66;96522.25;4988556;28;20891;-69
2024/03/07 07:46:06;;;;;;;40.17;27.03;;;;;;;3.10;76.13;96520.59;4985503;28;20436;-68
2024/03/07 07:48:32;;;;;;;42.27;28.07;;;;;;;3.63;74.59;96528.53;4988223;28;20188;-69
2024/03/07 07:50:58;;;;;;;39.67;27.17;;;;;;;3.85;74.15;96513.47;4988903;28;20657;-68
2024/03/07 07:53:23;;;;;;;40.70;26.40;;;;;;;3.98;73.13;96512.41;4992950;28;20251;-68
2024/03/07 07:55:49;;;;;;;39.83;28.50;;;;;;;4.05;72.62;96511.44;4997649;28;20207;-68
2024/03/07 07:58:14;;;;;;;41.83;26.10;;;;;;;4.08;73.27;96515.72;4990264;28;20183;-68
2024/03/07 08:00:42;;;;;;;37.73;26.07;;;;;;;4.02;73.69;96519.28;5003883;28;20253;-69
2024/03/07 08:03:10;;;;;;;40.60;25.20;;;;;;;4.15;72.91;96512.13;5017139;28;20181;-69
2024/03/07 08:05:37;;;;;;;51.33;28.07;;;;;;;4.30;72.08;96506.69;4991447;28;20428;-68
2024/03/07 08:08:07;;;;;;;37.83;25.43;;;;;;;4.65;71.02;96508.66;4993283;28;20774;-69
2024/03/07 08:10:34;;;;;;;35.97;26.60;;;;;;;4.23;72.01;96511.13;4989042;28;20415;-68
2024/03/07 08:13:00;;;;;;;43.80;28.00;;;;;;;4.22;72.24;96513.75;4988925;28;20962;-68
2024/03/07 08:15:30;;;;;;;42.17;28.60;;;;;;;4.08;73.16;96513.13;4989512;28;20535;-68
2024/03/07 08:17:57;;;;;;;42.53;27.43;;;;;;;4.11;72.91;96500.06;4988816;28;20408;-67
2024/03/07 08:20:25;;;;;;;43.37;25.90;;;;;;;4.18;73.62;96504.28;4989940;28;20963;-68
2024/03/07 08:22:52;;;;;;;40.33;26.80;;;;;;;4.10;73.81;96501.81;4994067;28;20420;-69
2024/03/07 08:25:22;;;;;;;45.23;28.23;;;;;;;4.34;72.46;96499.69;4992680;28;20454;-68
2024/03/07 08:27:49;;;;;;;40.50;27.40;;;;;;;3.96;72.70;96507.25;4992584;28;21039;-68
2024/03/07 08:30:15;;;;;;;42.57;27.87;;;;;;;4.10;73.34;96503.56;4989200;28;20416;-68
2024/03/07 08:32:43;;;;;;;40.97;27.40;;;;;;;4.27;74.71;96500.69;4981394;28;20439;-68
2024/03/07 08:35:09;;;;;;;41.03;27.50;;;;;;;4.98;71.99;96500.19;4987261;28;20503;-68
2024/03/07 08:37:36;;;;;;;47.30;27.17;;;;;;;4.71;71.77;96499.03;4986989;28;20436;-67
2024/03/07 08:40:06;;;;;;;54.27;29.07;;;;;;;4.95;70.79;96493.31;4988532;28;20823;-68
2024/03/07 08:42:33;;;;;;;48.80;29.10;;;;;;;4.57;71.60;96494.06;4988359;28;20414;-68
2024/03/07 08:45:04;;;;;;;48.30;29.40;;;;;;;4.37;72.26;96497.03;4989941;28;20440;-69
2024/03/07 08:47:36;;;;;;;54.37;31.20;;;;;;;4.64;71.77;96498.28;4989592;28;20480;-68
2024/03/07 08:50:08;;;;;;;50.47;29.93;;;;;;;4.53;72.01;96487.22;4988817;28;20459;-67
2024/03/07 08:52:36;;;;;;;51.70;30.97;;;;;;;4.63;71.90;96491.34;4988312;28;20400;-66
2024/03/07 08:55:03;;;;;;;53.23;30.37;;;;;;;4.67;72.05;96485.22;4988066;28;20811;-68
2024/03/07 08:57:28;;;;;;;47.63;29.63;;;;;;;4.64;71.96;96486.13;4988455;28;20412;-69
2024/03/07 08:59:54;;;;;;;48.60;30.37;;;;;;;4.69;71.74;96480.84;4988417;28;20456;-69
2024/03/07 09:02:19;;;;;;;48.30;29.20;;;;;;;4.55;72.90;96491.50;4988257;28;20268;-68
2024/03/07 09:04:46;;;;;;;46.67;28.17;;;;;;;4.58;72.51;96485.38;4988206;28;20196;-68
2024/03/07 09:07:13;;;;;;;44.83;28.07;;;;;;;4.98;71.50;96482.00;4988586;28;20187;-69
2024/03/07 09:09:38;;;;;;;47.20;28.70;;;;;;;4.53;72.42;96487.22;4987829;28;20494;-68
2024/03/07 09:12:05;;;;;;;46.43;27.20;;;;;;;4.82;71.97;96482.31;4987632;28;20494;-68
2024/03/07 09:14:30;;;;;;;50.17;31.60;;;;;;;4.34;72.99;96494.50;4987811;28;20675;-69
2024/03/07 09:16:56;;;;;;;52.37;30.67;;;;;;;4.13;72.19;96493.97;4988367;28;20456;-69
2024/03/07 09:19:24;;;;;;;47.90;30.47;;;;;;;4.24;72.41;96486.84;4987842;28;20177;-68
2024/03/07 09:21:52;;;;;;;46.20;28.73;;;;;;;4.72;72.28;96480.78;4987633;28;20416;-69
2024/03/07 09:24:21;;;;;;;46.87;29.90;;;;;;;4.38;72.35;96480.56;4987911;28;20420;-69
2024/03/07 09:26:51;;;;;;;48.03;29.47;;;;;;;4.52;71.74;96475.13;4987747;28;20400;-68
2024/03/07 09:29:18;;;;;;;40.27;29.20;;;;;;;5.03;70.24;96468.03;4987847;28;20412;-68
2024/03/07 09:31:44;;;;;;;41.03;27.50;;;;;;;4.95;70.66;96476.88;4986587;28;20416;-69
2024/03/07 09:34:09;;;;;;;42.30;27.13;;;;;;;4.81;71.21;96475.41;4987532;28;20818;-69
2024/03/07 09:36:34;;;;;;;44.73;27.40;;;;;;;5.14;70.06;96461.72;4988269;28;20420;-69
2024/03/07 09:39:00;;;;;;;51.33;31.83;;;;;;;5.20;70.45;96475.47;4988951;28;20251;-69
2024/03/07 09:41:26;;;;;;;47.10;29.03;;;;;;;4.55;71.10;96478.50;4989086;28;20204;-70
2024/03/07 09:43:55;;;;;;;46.67;30.47;;;;;;;4.40;71.20;96471.00;4988739;28;20670;-67
2024/03/07 09:46:23;;;;;;;47.73;31.40;;;;;;;4.73;71.04;96472.09;4995151;28;20408;-69
2024/03/07 09:48:53;;;;;;;50.40;31.60;;;;;;;4.56;71.95;96477.63;4994468;28;20408;-67
2024/03/07 09:51:20;;;;;;;50.00;31.07;;;;;;;4.81;71.57;96474.53;4990598;28;20425;-68
2024/03/07 09:53:49;;;;;;;46.87;31.20;;;;;;;4.76;70.46;96466.84;4991495;28;20483;-67
2024/03/07 09:56:19;;;;;;;50.50;32.20;;;;;;;4.37;72.00;96474.53;4991030;28;20479;-68
2024/03/07 09:58:49;;;;;;;50.00;31.03;;;;;;;4.48;72.61;96468.25;4975233;28;20417;-69
2024/03/07 10:01:18;;;;;;;48.90;31.77;;;;;;;4.43;71.84;96471.78;4992624;28;20416;-69
2024/03/07 10:03:47;;;;;;;50.20;31.63;;;;;;;4.38;71.80;96475.38;4992329;28;20460;-68
2024/03/07 10:06:13;;;;;;;45.20;29.63;;;;;;;4.33;72.09;96467.66;4992048;28;20511;-69
2024/03/07 10:08:41;;;;;;;49.37;32.50;;;;;;;4.46;71.18;96473.47;4991951;28;20503;-68
2024/03/07 10:11:08;;;;;;;52.07;30.30;;;;;;;4.42;73.13;96467.50;4990691;28;20504;-68
2024/03/07 10:13:35;;;;;;;50.23;31.87;;;;;;;4.30;72.63;96470.31;4987600;28;20464;-69
2024/03/07 10:16:04;;;;;;;51.63;32.27;;;;;;;4.54;71.56;96475.94;4988496;28;20424;-69
2024/03/07 10:18:31;;;;;;;49.03;29.80;;;;;;;4.45;71.71;96475.22;4987875;28;20416;-69
2024/03/07 10:20:57;;;;;;;48.67;29.77;;;;;;;4.35;71.86;96475.44;4987890;28;20416;-69
2024/03/07 10:23:23;;;;;;;47.23;31.93;;;;;;;4.74;71.40;96471.19;4970165;28;20458;-68
2024/03/07 10:25:50;;;;;;;50.03;32.00;;;;;;;4.81;71.43;96467.59;4987746;28;20169;-68
2024/03/07 10:28:17;;;;;;;55.37;32.43;;;;;;;4.65;71.34;96469.66;4987904;28;20408;-68
2024/03/07 10:30:47;;;;;;;57.10;33.83;;;;;;;4.80;71.58;96468.50;4987779;28;20416;-69
2024/03/07 10:33:13;;;;;;;47.33;29.87;;;;;;;4.35;71.86;96473.69;4987638;28;20478;-68
2024/03/07 10:35:39;;;;;;;53.70;32.43;;;;;;;4.54;71.50;96473.34;4988174;28;20447;-68
2024/03/07 10:38:06;;;;;;;53.63;33.23;;;;;;;4.42;72.24;96470.09;4987925;28;20967;-69
2024/03/07 10:40:33;;;;;;;52.17;31.37;;;;;;;4.53;71.36;96472.47;4987360;28;20199;-68
2024/03/07 10:43:02;;;;;;;51.27;32.63;;;;;;;4.64;71.30;96465.34;4986855;28;20408;-68
2024/03/07 10:45:30;;;;;;;52.37;34.40;;;;;;;4.77;71.09;96452.97;4987900;28;20412;-69
2024/03/07 10:47:57;;;;;;;50.50;31.33;;;;;;;5.35;68.46;96452.59;4970472;28;20508;-71
2024/03/07 10:51:00;;;;;;;53.30;31.97;;;;;;;5.31;69.10;96446.59;4987555;28;20427;-69
2024/03/07 10:53:57;;;;;;;50.93;31.80;;;;;;;5.65;67.60;96451.06;4988180;28;20498;-69
2024/03/07 10:56:48;;;;;;;45.50;30.90;;;;;;;5.36;68.46;96451.69;4987927;28;20418;-68
2024/03/07 10:59:18;;;;;;;52.03;31.83;;;;;;;5.80;65.82;96445.47;4988132;28;20442;-67
2024/03/07 11:02:04;;;;;;;50.40;32.53;;;;;;;5.66;66.63;96445.78;4987131;28;20420;-70
2024/03/07 11:04:31;;;;;;;52.43;32.43;;;;;;;5.58;67.50;96439.91;4987575;28;20482;-69
2024/03/07 11:06:58;;;;;;;48.43;32.67;;;;;;;5.73;66.59;96444.75;4987662;28;20938;-69
2024/03/07 11:09:28;;;;;;;52.77;32.73;;;;;;;5.17;67.75;96443.44;4987727;28;20466;-69
2024/03/07 11:11:56;;;;;;;50.60;32.80;;;;;;;5.40;68.76;96440.34;4987224;28;20409;-69
2024/03/07 11:14:22;;;;;;;49.23;34.13;;;;;;;5.62;68.21;96431.16;4969570;28;20467;-70
2024/03/07 11:16:49;;;;;;;46.17;31.80;;;;;;;5.54;68.45;96435.66;4986955;28;20475;-69
2024/03/07 11:19:36;;;;;;;63.53;35.97;;;;;;;5.34;68.67;96425.72;4987091;28;20907;-68
2024/03/07 11:22:13;;;;;;;49.60;32.40;;;;;;;5.60;68.35;96430.34;4987001;28;21427;-68
2024/03/07 11:24:39;;;;;;;50.07;33.70;;;;;;;5.72;67.55;96416.16;4986481;28;20547;-69